Time;durP1;ratioP1;P1;durP2;ratioP2;P2;SDS_P1;SDS_P2;PMS_P1;PMS_P2;Temp;Humidity;BMP_temperature;BMP_pressure;BME280_temperature;BME280_humidity;BME280_pressure;Samples;Min_cycle;Max_cycle;Signal;HPM_P1;HPM_P2
2023/02/22 00:00:51;;;;;;;55.00;5.53;;;3.40;99.90;;;1.92;100.00;101271.97;4937807;28;20554;-78
2023/02/22 00:03:31;;;;;;;48.92;5.95;;;3.40;99.90;;;1.94;100.00;101265.91;4946088;28;20030;-77
2023/02/22 00:06:06;;;;;;;55.58;6.38;;;3.40;99.90;;;1.94;100.00;101276.28;4901391;28;20830;-77
2023/02/22 00:08:36;;;;;;;72.70;7.00;;;3.40;99.90;;;1.97;100.00;101278.03;4938758;28;20045;-78
2023/02/22 00:11:07;;;;;;;62.28;6.65;;;3.50;99.90;;;2.01;100.00;101277.16;4947515;28;20459;-78
2023/02/22 00:13:37;;;;;;;48.53;6.03;;;3.50;99.90;;;2.05;100.00;101281.44;4933896;28;20116;-78
2023/02/22 00:16:03;;;;;;;41.72;5.13;;;3.50;99.90;;;2.04;100.00;101272.81;4925455;28;20042;-78
2023/02/22 00:18:29;;;;;;;54.00;6.13;;;3.60;99.90;;;2.10;100.00;101278.88;4955898;28;20029;-77
2023/02/22 00:20:59;;;;;;;57.13;7.75;;;3.60;99.90;;;2.15;100.00;101280.56;4944540;28;20034;-78
2023/02/22 00:23:29;;;;;;;67.63;6.30;;;3.60;99.90;;;2.13;100.00;101276.25;4983154;28;20027;-77
2023/02/22 00:25:58;;;;;;;54.60;6.60;;;3.60;99.90;;;2.14;100.00;101272.75;4932349;28;20777;-78
2023/02/22 00:28:24;;;;;;;60.45;6.63;;;3.70;99.90;;;2.15;100.00;101270.19;4923271;28;20117;-78
2023/02/22 00:30:58;;;;;;;64.03;8.35;;;3.70;99.90;;;2.13;100.00;101277.09;4922073;28;20034;-78
2023/02/22 00:33:24;;;;;;;88.00;10.25;;;3.70;99.90;;;2.11;100.00;101278.00;4921335;28;20027;-78
2023/02/22 00:35:50;;;;;;;87.63;12.45;;;3.70;99.90;;;2.10;100.00;101279.72;4932184;28;20029;-78
2023/02/22 00:38:18;;;;;;;224.25;53.50;;;3.70;99.90;;;2.16;100.00;101274.50;4905974;28;20039;-78
2023/02/22 00:40:48;;;;;;;106.38;23.20;;;3.70;99.90;;;2.27;100.00;101277.09;4928850;28;20054;-78
2023/02/22 00:43:14;;;;;;;88.05;18.35;;;3.80;99.90;;;2.28;100.00;101275.34;4961285;28;20039;-78
2023/02/22 00:45:40;;;;;;;127.15;28.90;;;3.80;99.90;;;2.24;100.00;101277.94;4962148;28;20037;-78
2023/02/22 00:48:08;;;;;;;61.17;6.57;;;3.80;99.90;;;2.28;100.00;101276.19;4963647;28;20499;-78
2023/02/22 00:50:42;;;;;;;51.83;6.00;;;3.80;99.90;;;2.26;100.00;101276.19;4952809;28;20034;-78
2023/02/22 00:53:09;;;;;;;66.90;6.80;;;3.80;99.90;;;2.29;100.00;101274.44;4915123;28;20045;-78
2023/02/22 00:55:37;;;;;;;55.28;7.00;;;3.80;99.90;;;2.24;100.00;101275.34;4947281;28;20621;-79
2023/02/22 00:58:06;;;;;;;64.60;7.18;;;3.80;99.90;;;2.32;100.00;101275.31;4921199;28;20049;-78
2023/02/22 01:00:40;;;;;;;54.88;5.95;;;3.80;99.90;;;2.23;100.00;101276.22;4929524;28;20626;-78
2023/02/22 01:03:13;;;;;;;50.60;5.28;;;3.80;99.90;;;2.24;100.00;101271.88;4970520;28;20670;-78
2023/02/22 01:05:39;;;;;;;65.70;5.57;;;3.80;99.90;;;2.21;100.00;101275.34;4933565;28;20106;-78
2023/02/22 01:08:08;;;;;;;51.50;6.45;;;3.80;99.90;;;2.15;100.00;101277.97;4931532;28;20210;-78
2023/02/22 01:10:36;;;;;;;110.95;24.38;;;3.80;99.90;;;2.28;100.00;101280.53;4938290;28;20034;-79
2023/02/22 01:13:07;;;;;;;55.03;6.20;;;3.80;99.90;;;2.21;100.00;101275.34;4942265;28;20039;-78
2023/02/22 01:15:35;;;;;;;63.22;6.63;;;3.80;99.90;;;2.19;100.00;101278.84;4893180;28;20051;-77
2023/02/22 01:18:11;;;;;;;47.55;4.65;;;3.80;99.90;;;2.21;100.00;101279.69;4933222;28;20046;-78
2023/02/22 01:20:38;;;;;;;63.00;12.35;;;3.80;99.90;;;2.32;100.00;101282.25;4926641;28;20027;-77
2023/02/22 01:23:06;;;;;;;82.10;28.90;;;3.80;99.90;;;2.39;100.00;101279.59;4930691;28;20042;-78
2023/02/22 01:25:36;;;;;;;88.35;28.23;;;3.90;99.90;;;2.47;100.00;101282.19;4934962;28;20049;-77
2023/02/22 01:28:04;;;;;;;95.90;24.70;;;3.90;99.90;;;2.44;100.00;101277.00;4939986;28;20040;-77
2023/02/22 01:30:36;;;;;;;64.95;6.55;;;4.00;99.90;;;2.43;100.00;101272.66;4938934;28;20061;-78
2023/02/22 01:33:05;;;;;;;49.20;5.25;;;3.90;99.90;;;2.42;100.00;101266.63;4960532;28;20034;-79
2023/02/22 01:35:39;;;;;;;77.28;12.13;;;3.90;99.90;;;2.45;100.00;101270.94;4956320;28;20110;-77
2023/02/22 01:38:09;;;;;;;103.70;32.15;;;4.00;99.90;;;2.55;100.00;101277.81;4948805;28;20046;-78
2023/02/22 01:40:44;;;;;;;94.95;27.63;;;4.10;99.90;;;2.63;100.00;101281.22;4939598;28;20991;-78
2023/02/22 01:43:29;;;;;;;74.95;18.40;;;4.10;99.90;;;2.70;100.00;101278.59;4936170;28;20034;-78
2023/02/22 01:46:17;;;;;;;72.03;21.90;;;4.10;99.90;;;2.67;100.00;101274.28;4944107;28;20034;-77
2023/02/22 01:49:05;;;;;;;80.47;19.40;;;3.60;99.90;;;2.64;100.00;101274.31;4954544;28;20034;-78
2023/02/22 01:51:42;;;;;;;219.00;82.70;;;4.10;99.90;;;2.62;100.00;101269.13;4971586;28;20035;-77
2023/02/22 01:54:17;;;;;;;180.88;67.95;;;4.20;99.90;;;2.70;100.00;101271.69;4935999;28;20491;-78
2023/02/22 01:57:18;;;;;;;154.50;47.53;;;4.20;99.90;;;2.79;100.00;101281.19;4973215;28;20101;-78
2023/02/22 01:59:51;;;;;;;61.17;9.38;;;4.30;99.90;;;2.79;100.00;101278.56;4973188;28;20042;-78
2023/02/22 02:02:27;;;;;;;65.35;6.20;;;4.30;99.90;;;2.76;100.00;101278.56;4962735;28;20122;-78
2023/02/22 02:04:56;;;;;;;43.38;5.75;;;4.20;99.90;;;2.72;100.00;101269.06;4943258;28;20042;-78
2023/02/22 02:07:28;;;;;;;60.03;5.82;;;4.30;99.90;;;2.77;100.00;101272.53;4926394;28;20122;-77
2023/02/22 02:10:13;;;;;;;50.80;5.93;;;4.30;99.90;;;2.81;100.00;101269.88;4936513;28;20050;-78
2023/02/22 02:12:50;;;;;;;52.20;5.82;;;4.30;99.90;;;2.83;100.00;101275.06;4955263;28;20046;-76
2023/02/22 02:15:27;;;;;;;57.90;6.03;;;4.30;99.90;;;2.84;100.00;101274.19;4967811;28;20040;-77
2023/02/22 02:17:59;;;;;;;52.00;6.47;;;4.30;99.90;;;2.86;100.00;101275.06;4952173;28;20047;-78
2023/02/22 02:20:37;;;;;;;65.80;6.85;;;4.30;99.90;;;2.86;100.00;101259.44;4947643;28;20044;-78
2023/02/22 02:23:43;;;;;;;56.28;6.57;;;4.30;99.90;;;2.87;100.00;101264.66;4944852;28;20586;-77
2023/02/22 02:26:36;;;;;;;51.58;6.93;;;4.30;99.90;;;2.72;100.00;101259.53;4970023;28;20710;-77
2023/02/22 02:29:29;;;;;;;114.43;25.83;;;4.30;99.90;;;2.77;100.00;101262.97;4955117;28;20040;-77
2023/02/22 02:32:35;;;;;;;68.03;7.55;;;4.30;99.90;;;2.84;100.00;101275.06;4979036;28;20518;-78
2023/02/22 02:35:56;;;;;;;68.03;6.65;;;4.40;99.90;;;2.81;100.00;101269.88;4964284;28;20030;-77
2023/02/22 02:38:57;;;;;;;47.28;5.50;;;4.30;99.90;;;2.84;100.00;101269.84;4898049;29;20052;-78
2023/02/22 02:41:25;;;;;;;42.92;5.88;;;4.30;99.90;;;2.83;100.00;101267.25;4958055;28;20065;-78
2023/02/22 02:44:19;;;;;;;38.65;5.30;;;4.30;99.90;;;2.92;100.00;101272.41;4973454;28;20125;-77
2023/02/22 02:47:01;;;;;;;40.78;5.90;;;4.40;99.90;;;2.81;100.00;101275.09;4951527;28;20034;-77
2023/02/22 02:49:44;;;;;;;58.13;11.82;;;4.30;99.90;;;2.83;100.00;101275.06;4940425;28;20487;-77
2023/02/22 02:52:22;;;;;;;68.00;10.25;;;4.40;99.90;;;2.92;100.00;101276.78;4929653;28;20419;-77
2023/02/22 02:54:49;;;;;;;47.83;5.45;;;4.40;99.90;;;2.84;100.00;101266.41;4900477;28;20054;-77
2023/02/22 02:57:17;;;;;;;38.85;6.57;;;4.30;99.90;;;2.79;100.00;101270.78;4905904;28;20068;-78
2023/02/22 02:59:43;;;;;;;53.50;8.43;;;4.40;99.90;;;2.90;100.00;101275.91;4950119;28;20034;-78
2023/02/22 03:02:32;;;;;;;49.60;7.15;;;4.40;99.90;;;2.87;100.00;101271.56;4962505;28;20049;-77
2023/02/22 03:05:27;;;;;;;60.58;7.15;;;4.30;99.90;;;2.81;100.00;101269.88;4969788;28;20058;-77
2023/02/22 03:08:03;;;;;;;49.78;6.45;;;4.40;99.90;;;2.90;100.00;101276.78;4982780;28;20080;-78
2023/02/22 03:10:36;;;;;;;40.13;5.07;;;4.30;99.90;;;2.88;100.00;101278.50;4936679;28;20051;-77
2023/02/22 03:13:18;;;;;;;52.70;5.95;;;4.30;99.90;;;2.75;100.00;101261.25;4923835;28;20046;-77
2023/02/22 03:16:11;;;;;;;60.00;5.68;;;4.30;99.90;;;2.87;100.00;101271.56;4952044;28;20035;-78
2023/02/22 03:18:55;;;;;;;55.28;6.10;;;4.30;99.90;;;2.78;100.00;101272.50;4953129;28;20042;-77
2023/02/22 03:22:13;;;;;;;43.75;5.20;;;4.30;99.90;;;2.61;100.00;101259.59;4965820;28;20027;-77
2023/02/22 03:24:51;;;;;;;56.53;6.10;;;4.30;99.90;;;2.79;100.00;101268.19;4911053;28;20051;-76
2023/02/22 03:27:33;;;;;;;65.25;6.05;;;4.30;99.90;;;2.88;100.00;101268.09;4911073;28;20098;-77
2023/02/22 03:30:09;;;;;;;58.40;6.15;;;4.40;99.90;;;2.93;100.00;101268.06;4956436;28;20037;-77
2023/02/22 03:32:41;;;;;;;47.70;5.03;;;4.40;99.90;;;2.75;100.00;101256.06;4951974;28;20073;-78
2023/02/22 03:35:15;;;;;;;52.25;5.90;;;4.30;99.90;;;2.82;100.00;101262.94;4951879;28;20105;-78
2023/02/22 03:37:52;;;;;;;50.33;6.47;;;4.30;99.90;;;2.79;100.00;101260.38;4943208;28;20046;-78
2023/02/22 03:40:42;;;;;;;56.97;6.30;;;4.30;99.90;;;2.74;100.00;101269.91;4954611;28;20134;-76
2023/02/22 03:43:15;;;;;;;74.07;7.03;;;4.30;99.90;;;2.82;100.00;101268.13;4914825;28;20109;-78
2023/02/22 03:45:44;;;;;;;61.55;7.78;;;4.30;99.90;;;2.81;100.00;101258.63;4918077;28;20039;-77
2023/02/22 03:48:53;;;;;;;57.88;7.13;;;4.40;99.90;;;2.88;100.00;101268.09;4928888;28;20618;-78
2023/02/22 03:51:19;;;;;;;48.75;5.35;;;4.40;99.90;;;2.90;100.00;101268.97;4963612;28;20047;-77
2023/02/22 03:53:51;;;;;;;44.95;5.38;;;4.40;99.90;;;2.89;100.00;101269.81;4942314;28;20046;-78
2023/02/22 03:56:34;;;;;;;40.13;5.43;;;4.40;99.90;;;2.86;100.00;101265.50;4957654;28;20046;-77
2023/02/22 03:59:15;;;;;;;46.38;5.53;;;4.40;99.90;;;2.86;100.00;101272.47;4969681;28;20182;-77
2023/02/22 04:01:41;;;;;;;55.97;6.60;;;4.30;99.90;;;2.87;100.00;101263.75;4950942;28;20034;-78
2023/02/22 04:04:07;;;;;;;60.80;6.05;;;4.30;99.90;;;2.83;100.00;101269.84;4924054;28;20040;-78
2023/02/22 04:06:33;;;;;;;43.40;6.32;;;4.30;99.90;;;2.86;100.00;101280.25;4935306;28;20054;-78
2023/02/22 04:09:04;;;;;;;54.60;6.00;;;4.40;99.90;;;2.90;100.00;101279.38;4926010;28;20133;-77
2023/02/22 04:11:29;;;;;;;51.30;6.30;;;4.40;99.90;;;2.87;100.00;101282.88;4936320;28;20066;-77
2023/02/22 04:13:56;;;;;;;31.45;4.35;;;4.30;99.90;;;2.84;100.00;101282.00;4944781;28;20067;-78
2023/02/22 04:16:21;;;;;;;35.47;4.72;;;4.30;99.90;;;2.83;100.00;101280.25;4928236;28;20047;-78
2023/02/22 04:18:47;;;;;;;44.25;5.50;;;4.30;99.90;;;2.72;100.00;101282.94;4937179;28;20048;-77
2023/02/22 04:21:13;;;;;;;42.70;5.55;;;4.30;99.90;;;2.64;100.00;101284.72;4918997;28;20049;-78
2023/02/22 04:23:46;;;;;;;43.78;6.38;;;4.30;99.90;;;2.70;100.00;101282.09;4946576;28;20050;-78
2023/02/22 04:26:12;;;;;;;53.70;7.32;;;4.30;99.90;;;2.76;100.00;101278.56;4959582;28;20042;-78
2023/02/22 04:28:38;;;;;;;32.85;5.45;;;4.30;99.90;;;2.73;100.00;101278.59;4956871;28;20034;-78
2023/02/22 04:31:04;;;;;;;50.67;5.20;;;4.30;99.90;;;2.72;100.00;101279.47;4935615;28;20054;-77
2023/02/22 04:33:39;;;;;;;51.58;6.07;;;4.20;99.90;;;2.63;100.00;101283.81;4947362;28;20104;-77
2023/02/22 04:36:06;;;;;;;60.67;6.80;;;4.20;99.90;;;2.75;100.00;101288.13;4931574;28;20122;-78
2023/02/22 04:38:32;;;;;;;52.17;5.25;;;4.20;99.90;;;2.69;100.00;101292.50;4920910;28;20074;-78
2023/02/22 04:41:03;;;;;;;48.58;5.70;;;4.20;99.90;;;2.63;100.00;101282.97;4935132;28;20041;-78
2023/02/22 04:43:29;;;;;;;66.82;7.13;;;4.20;99.90;;;2.66;100.00;101281.22;4927271;28;20051;-77
2023/02/22 04:45:54;;;;;;;50.97;5.78;;;4.20;99.90;;;2.67;100.00;101275.16;4959085;28;20042;-78
2023/02/22 04:48:20;;;;;;;56.58;6.35;;;4.20;99.90;;;2.63;100.00;101278.63;4920456;28;20415;-77
2023/02/22 04:50:46;;;;;;;53.65;6.70;;;4.20;99.90;;;2.70;100.00;101276.88;4940349;28;20038;-77
2023/02/22 04:53:12;;;;;;;58.08;6.70;;;4.30;99.90;;;2.66;100.00;101278.63;4973043;28;20037;-77
2023/02/22 04:55:45;;;;;;;80.82;7.28;;;4.30;99.90;;;2.71;100.00;101290.75;4920324;28;20109;-77
2023/02/22 04:58:11;;;;;;;60.05;6.13;;;4.30;99.90;;;2.75;100.00;101276.88;4961593;28;20041;-78
2023/02/22 05:00:37;;;;;;;69.22;7.20;;;4.30;99.90;;;2.75;100.00;101282.06;4952424;28;20030;-78
2023/02/22 05:03:03;;;;;;;73.00;7.22;;;4.30;99.90;;;2.66;100.00;101282.97;4962881;28;20061;-77
2023/02/22 05:05:29;;;;;;;61.80;7.72;;;4.40;99.90;;;2.76;100.00;101275.97;4964104;28;20038;-77
2023/02/22 05:07:57;;;;;;;65.85;7.38;;;4.30;99.90;;;2.78;100.00;101280.28;4913895;28;20109;-78
2023/02/22 05:10:23;;;;;;;91.47;8.80;;;4.30;99.90;;;2.71;100.00;101281.19;4951674;28;20033;-77
2023/02/22 05:12:50;;;;;;;62.05;8.07;;;4.30;99.90;;;2.80;100.00;101285.50;4951054;28;20093;-77
2023/02/22 05:15:19;;;;;;;78.32;7.50;;;4.40;99.90;;;2.90;100.00;101278.50;4947359;28;20117;-78
2023/02/22 05:17:46;;;;;;;88.60;8.55;;;4.40;99.90;;;2.93;100.00;101281.09;4926881;28;20046;-77
2023/02/22 05:20:28;;;;;;;67.00;8.55;;;4.40;99.90;;;2.91;100.00;101283.69;4937325;28;20050;-78
2023/02/22 05:22:56;;;;;;;78.80;8.20;;;4.40;99.90;;;2.90;100.00;101286.31;4944286;28;20073;-78
2023/02/22 05:25:22;;;;;;;84.18;8.05;;;4.40;99.90;;;2.97;100.00;101286.25;4949426;28;20047;-77
2023/02/22 05:27:56;;;;;;;77.50;9.90;;;4.40;99.90;;;2.99;100.00;101276.69;4933762;28;20503;-77
2023/02/22 05:30:29;;;;;;;72.97;7.38;;;4.40;99.90;;;2.76;100.00;101278.56;4973954;28;20031;-77
2023/02/22 05:32:55;;;;;;;66.30;7.95;;;4.40;99.90;;;2.72;100.00;101275.16;4932642;28;20034;-78
2023/02/22 05:35:24;;;;;;;74.40;6.80;;;4.40;99.90;;;2.75;100.00;101271.66;4946840;28;20040;-77
2023/02/22 05:37:53;;;;;;;65.38;7.32;;;4.30;99.90;;;2.65;100.00;101278.63;4914478;28;20044;-78
2023/02/22 05:40:22;;;;;;;75.72;7.25;;;4.30;99.90;;;2.70;100.00;101283.81;4896862;28;20046;-77
2023/02/22 05:42:52;;;;;;;81.15;8.20;;;4.30;99.90;;;2.75;100.00;101287.25;4917751;28;20084;-77
2023/02/22 05:45:22;;;;;;;76.50;7.03;;;4.30;99.90;;;2.80;100.00;101286.34;4919706;28;20039;-78
2023/02/22 05:47:49;;;;;;;76.30;7.30;;;4.30;99.90;;;2.81;100.00;101293.28;4944876;28;20034;-77
2023/02/22 05:50:18;;;;;;;63.40;7.97;;;4.20;99.90;;;2.69;100.00;101290.75;4919693;28;20046;-77
2023/02/22 05:52:47;;;;;;;52.35;7.18;;;4.20;99.90;;;2.73;100.00;101296.81;4958455;28;20521;-77
2023/02/22 05:55:17;;;;;;;83.63;11.52;;;4.20;99.90;;;2.69;100.00;101292.50;4920794;28;20046;-78
2023/02/22 05:57:43;;;;;;;100.05;19.42;;;4.20;99.90;;;2.67;100.00;101301.16;4940227;28;21370;-78
2023/02/22 06:00:25;;;;;;;76.05;12.85;;;4.20;99.90;;;2.61;100.00;101287.31;4922653;28;20057;-77
2023/02/22 06:03:06;;;;;;;64.57;8.25;;;4.10;99.90;;;2.57;100.00;101294.28;4946940;28;20038;-77
2023/02/22 06:05:35;;;;;;;81.40;11.85;;;4.10;99.90;;;2.53;100.00;101289.97;4949384;28;20102;-77
2023/02/22 06:08:03;;;;;;;76.22;10.95;;;4.00;99.90;;;2.46;100.00;101291.72;4934847;28;20047;-78
2023/02/22 06:10:29;;;;;;;64.63;9.45;;;4.00;99.90;;;2.42;100.00;101299.56;4939861;28;20112;-76
2023/02/22 06:12:55;;;;;;;63.25;7.95;;;3.90;99.90;;;2.35;100.00;101301.28;4926766;28;20038;-77
2023/02/22 06:15:26;;;;;;;93.28;7.18;;;3.90;99.90;;;2.33;100.00;101309.97;4930661;28;20031;-77
2023/02/22 06:17:54;;;;;;;59.30;6.90;;;3.80;99.90;;;2.17;100.00;101304.81;4924778;28;20038;-76
2023/02/22 06:20:23;;;;;;;45.40;5.68;;;3.70;99.90;;;2.06;100.00;101306.56;4913416;28;20039;-77
2023/02/22 06:22:54;;;;;;;39.72;6.20;;;3.60;99.90;;;2.00;100.00;101311.78;4894075;28;20039;-79
2023/02/22 06:25:26;;;;;;;56.75;6.30;;;3.50;99.90;;;1.88;100.00;101309.19;4936844;28;20038;-79
2023/02/22 06:27:53;;;;;;;51.47;5.85;;;3.40;99.90;;;1.78;100.00;101305.75;4957557;28;20037;-80
2023/02/22 06:30:24;;;;;;;66.10;6.82;;;3.30;99.90;;;1.78;100.00;101301.44;4960171;28;20125;-79
2023/02/22 06:32:50;;;;;;;68.85;6.35;;;3.30;99.90;;;1.80;100.00;101319.59;4942530;28;20030;-79
2023/02/22 06:35:16;;;;;;;47.40;5.40;;;3.30;99.90;;;1.76;100.00;101310.94;4952121;28;20129;-80
2023/02/22 06:37:42;;;;;;;57.17;6.30;;;3.30;99.90;;;1.82;100.00;101317.88;4945782;28;20407;-77
2023/02/22 06:40:18;;;;;;;61.45;6.43;;;3.30;99.90;;;1.92;100.00;101319.56;4951002;28;20042;-79
2023/02/22 06:42:47;;;;;;;55.95;7.55;;;3.30;99.90;;;1.99;100.00;101320.47;4939142;28;20042;-79
2023/02/22 06:45:21;;;;;;;62.45;6.38;;;3.30;99.90;;;1.92;100.00;101311.78;4914438;28;20042;-77
2023/02/22 06:47:48;;;;;;;46.03;5.40;;;3.30;99.90;;;2.07;100.00;101318.69;4957147;28;20081;-76
2023/02/22 06:50:27;;;;;;;79.18;7.47;;;3.40;99.90;;;2.25;100.00;101323.84;4974635;22;20046;-82
2023/02/22 06:52:53;;;;;;;91.55;8.07;;;3.50;99.90;;;2.48;100.00;101322.91;4969555;28;20677;-82
2023/02/22 06:55:32;;;;;;;78.03;7.15;;;3.60;99.90;;;3.07;100.00;101339.97;4952221;28;20566;-80
2023/02/22 06:57:59;;;;;;;57.00;6.40;;;4.00;99.90;;;4.66;100.00;101352.44;4944139;28;20050;-79
2023/02/22 07:00:29;;;;;;;56.75;6.65;;;4.30;99.90;;;5.29;95.08;101351.59;4966135;28;20038;-80
2023/02/22 07:02:56;;;;;;;45.00;6.10;;;4.70;99.90;;;5.97;90.08;101360.16;4947992;28;20566;-81
2023/02/22 07:05:23;;;;;;;53.47;7.05;;;5.10;99.90;;;6.74;85.41;101364.78;4953484;28;20046;-80
2023/02/22 07:07:52;;;;;;;46.42;6.00;;;5.60;99.90;;;7.64;81.42;101363.66;4946784;28;20038;-82
2023/02/22 07:10:25;;;;;;;60.60;6.80;;;6.10;99.90;;;7.59;78.42;101362.00;4955132;28;20043;-80
2023/02/22 07:12:51;;;;;;;58.63;6.60;;;6.40;99.90;;;6.63;78.89;101354.53;4957319;28;20113;-80
2023/02/22 07:15:20;;;;;;;56.40;6.20;;;6.40;99.90;;;5.27;82.08;101352.50;4973866;28;20432;-80
2023/02/22 07:17:52;;;;;;;53.40;6.85;;;6.10;99.90;;;4.71;85.47;101357.63;4958383;28;20578;-81
2023/02/22 07:20:20;;;;;;;65.40;8.07;;;5.70;99.90;;;3.85;89.53;101348.94;4926815;28;20439;-79
2023/02/22 07:22:48;;;;;;;68.40;8.80;;;5.50;99.90;;;3.78;91.95;101352.50;4946708;28;20026;-80
2023/02/22 07:25:21;;;;;;;105.47;10.27;;;5.30;99.90;;;3.58;93.99;101354.38;4974251;28;20038;-80
2023/02/22 07:27:47;;;;;;;75.30;8.73;;;5.00;99.90;;;3.38;95.67;101350.19;4943991;28;20043;-79
2023/02/22 07:30:29;;;;;;;80.03;8.98;;;5.00;99.90;;;3.33;97.53;101354.56;4982268;28;20055;-81
2023/02/22 07:32:58;;;;;;;93.05;7.60;;;4.80;99.90;;;2.97;98.77;101351.28;4946864;28;20034;-80
2023/02/22 07:35:35;;;;;;;82.18;7.25;;;4.60;99.90;;;2.79;100.00;101354.00;4963783;28;20098;-79
2023/02/22 07:38:05;;;;;;;93.45;8.25;;;4.40;99.90;;;2.73;100.00;101356.63;4949466;28;20042;-81
2023/02/22 07:40:34;;;;;;;87.70;7.72;;;4.30;99.90;;;2.60;100.00;101356.66;4926438;28;20038;-81
2023/02/22 07:43:21;;;;;;;53.72;5.03;;;4.20;99.90;;;2.37;100.00;101361.06;4946064;28;20061;-80
2023/02/22 07:45:57;;;;;;;118.35;7.57;;;4.00;99.90;;;2.24;100.00;101358.47;4948215;28;20074;-81
2023/02/22 07:48:33;;;;;;;107.97;9.05;;;4.00;99.90;;;2.38;100.00;101361.06;4955160;28;20026;-82
2023/02/22 07:50:59;;;;;;;79.10;7.53;;;3.90;99.90;;;2.35;100.00;101365.41;4948232;28;20117;-80
2023/02/22 07:53:32;;;;;;;83.35;5.80;;;3.90;99.90;;;2.20;100.00;101354.19;4947736;28;20076;-82
2023/02/22 07:56:00;;;;;;;138.25;8.95;;;3.90;99.90;;;2.26;100.00;101364.53;4928059;28;20034;-81
2023/02/22 07:58:30;;;;;;;129.90;8.43;;;4.00;99.90;;;2.49;100.00;101368.84;4967906;28;20051;-81
2023/02/22 08:00:57;;;;;;;127.43;8.20;;;4.10;99.90;;;2.65;100.00;101373.09;4932909;28;20034;-81
2023/02/22 08:03:30;;;;;;;130.25;6.75;;;4.00;99.90;;;2.36;100.00;101367.16;4922058;28;20030;-81
2023/02/22 08:05:59;;;;;;;207.75;9.45;;;3.90;99.90;;;2.29;100.00;101368.91;4932188;28;20069;-81
2023/02/22 08:08:25;;;;;;;161.77;8.13;;;4.00;99.90;;;2.31;100.00;101374.97;4949697;28;20114;-84
2023/02/22 08:10:57;;;;;;;127.53;8.70;;;4.00;99.90;;;2.40;100.00;101374.06;4921357;28;20411;-83
2023/02/22 08:13:23;;;;;;;124.22;9.82;;;4.00;99.90;;;2.49;100.00;101387.03;4944100;28;20415;-82
2023/02/22 08:15:52;;;;;;;98.13;8.23;;;4.10;99.90;;;2.51;100.00;101382.69;4953683;28;20101;-81
2023/02/22 08:18:25;;;;;;;237.05;11.75;;;4.10;99.90;;;2.53;100.00;101383.56;4935191;28;20046;-82
2023/02/22 08:20:53;;;;;;;174.88;9.60;;;4.10;99.90;;;2.51;100.00;101387.91;4928575;28;20043;-83
2023/02/22 08:23:30;;;;;;;201.70;10.60;;;4.10;99.90;;;2.60;100.00;101382.66;4910685;28;20034;-81
2023/02/22 08:25:56;;;;;;;324.83;12.18;;;4.20;99.90;;;2.64;100.00;101384.38;4934660;28;20070;-82
2023/02/22 08:28:23;;;;;;;179.25;11.32;;;4.20;99.90;;;2.61;100.00;101381.81;4951672;28;20047;-82
2023/02/22 08:30:55;;;;;;;307.85;12.88;;;4.30;99.90;;;2.71;100.00;101384.38;4936418;28;20073;-80
2023/02/22 08:33:21;;;;;;;204.48;11.15;;;4.30;99.90;;;2.85;100.00;101382.56;4916193;28;20027;-82
2023/02/22 08:35:48;;;;;;;185.30;11.10;;;4.40;99.90;;;2.95;100.00;101393.81;4964777;28;20096;-82
2023/02/22 08:38:28;;;;;;;266.67;12.38;;;4.30;99.90;;;2.67;100.00;101384.34;4965902;28;20577;-83
2023/02/22 08:40:54;;;;;;;229.27;11.98;;;4.20;99.90;;;2.66;100.00;101380.03;4974551;28;20546;-83
2023/02/22 08:43:24;;;;;;;45.70;3.97;;;4.30;99.90;;;2.55;100.00;101383.53;4965677;28;20049;-82
2023/02/22 08:45:53;;;;;;;180.68;10.77;;;4.30;99.90;;;2.68;100.00;101380.06;4946759;28;20042;-82
2023/02/22 08:48:19;;;;;;;159.13;11.25;;;4.20;99.90;;;2.63;100.00;101380.03;4941295;28;20035;-81
2023/02/22 08:50:45;;;;;;;304.13;14.70;;;4.40;99.90;;;2.93;100.00;101387.75;4943879;28;20030;-82
2023/02/22 08:53:16;;;;;;;166.18;12.93;;;4.40;99.90;;;3.01;100.00;101389.44;4950070;28;20038;-82
2023/02/22 08:55:43;;;;;;;153.90;13.40;;;4.60;99.90;;;3.17;100.00;101392.81;4952553;28;20022;-81
2023/02/22 08:58:10;;;;;;;150.85;13.38;;;4.60;99.90;;;3.26;100.00;101390.19;4962231;28;20054;-82
2023/02/22 09:00:39;;;;;;;117.35;12.25;;;4.70;99.90;;;3.26;100.00;101389.28;4924219;28;20048;-82
2023/02/22 09:03:11;;;;;;;118.90;12.77;;;4.80;99.90;;;3.41;100.00;101389.22;4952178;28;20092;-83
2023/02/22 09:05:37;;;;;;;88.38;11.45;;;4.70;99.90;;;3.12;100.00;101385.91;4949915;28;20097;-83
2023/02/22 09:08:06;;;;;;;150.43;12.90;;;4.70;99.90;;;3.13;100.00;101392.84;4967544;28;20044;-82
2023/02/22 09:10:39;;;;;;;172.93;13.38;;;4.70;99.90;;;3.24;100.00;101385.84;4959594;28;20045;-81
2023/02/22 09:13:06;;;;;;;89.03;13.15;;;4.80;99.90;;;3.38;100.00;101383.16;4940330;28;20202;-83
2023/02/22 09:15:35;;;;;;;184.45;15.00;;;4.80;99.90;;;3.33;100.00;101387.53;4939801;28;20041;-82
2023/02/22 09:18:09;;;;;;;215.77;15.18;;;4.80;99.90;;;3.24;100.00;101396.25;4977937;28;20045;-81
2023/02/22 09:20:36;;;;;;;164.07;15.27;;;4.80;99.90;;;3.16;100.00;101385.88;4954773;28;20046;-81
2023/02/22 09:23:04;;;;;;;145.00;15.60;;;4.80;99.90;;;3.33;100.00;101387.53;4942125;28;20125;-81
2023/02/22 09:25:37;;;;;;;114.72;16.02;;;4.90;99.90;;;3.45;100.00;101393.50;4978320;28;20080;-82
2023/02/22 09:28:03;;;;;;;104.40;15.07;;;4.90;99.90;;;3.42;100.00;101380.53;4949147;28;20038;-81
2023/02/22 09:30:36;;;;;;;77.32;14.23;;;5.00;99.90;;;3.49;100.00;101397.81;4955261;28;20062;-81
2023/02/22 09:33:18;;;;;;;123.55;15.02;;;4.90;99.90;;;3.35;100.00;101394.47;4908540;28;20030;-82
2023/02/22 09:35:48;;;;;;;118.22;15.63;;;4.90;99.90;;;3.42;100.00;101390.09;4925703;28;20493;-82
2023/02/22 09:38:25;;;;;;;160.15;16.30;;;;;;;3.69;100.00;101392.50;4931098;28;20048;-82
2023/02/22 09:41:23;;;;;;;131.90;15.80;;;5.20;99.90;;;3.86;100.00;101397.56;4970992;28;20102;-82
2023/02/22 09:44:14;;;;;;;74.10;15.85;;;5.20;99.90;;;3.86;100.00;101401.91;4964074;28;20064;-81
2023/02/22 09:46:44;;;;;;;120.25;15.52;;;5.30;99.90;;;3.97;100.00;101404.41;4961208;28;20110;-81
2023/02/22 09:49:50;;;;;;;61.45;15.63;;;5.40;99.90;;;4.09;100.00;101405.19;4965965;28;20042;-81
2023/02/22 09:52:38;;;;;;;50.75;15.95;;;5.60;99.90;;;4.41;100.00;101408.38;4978056;28;20034;-82
2023/02/22 09:55:49;;;;;;;151.25;43.50;;;5.60;99.90;;;4.11;100.00;101403.44;4971246;28;20034;-83
2023/02/22 09:58:44;;;;;;;61.55;16.52;;;5.70;99.90;;;3.97;100.00;101410.50;4953749;28;20057;-84
2023/02/22 10:01:42;;;;;;;79.90;17.40;;;5.60;99.90;;;4.22;100.00;101413.75;4956426;28;20572;-84
2023/02/22 10:04:40;;;;;;;32.95;10.80;;;5.70;99.90;;;4.12;100.00;101404.28;4948571;28;20087;-83
2023/02/22 10:08:01;;;;;;;60.97;14.68;;;5.60;99.90;;;3.92;100.00;101395.78;4947456;28;20570;-82
2023/02/22 10:10:57;;;;;;;55.83;16.92;;;5.40;99.90;;;3.71;100.00;101397.69;4971669;28;20038;-81
2023/02/22 10:14:12;;;;;;;48.33;14.18;;;5.40;99.90;;;3.97;100.00;101394.00;4975889;28;20069;-82
2023/02/22 10:17:26;;;;;;;44.50;11.32;;;5.50;99.90;;;4.01;100.00;101403.53;4940152;28;20042;-82
2023/02/22 10:20:31;;;;;;;40.88;13.43;;;5.50;99.90;;;4.06;100.00;101392.19;4966789;28;20042;-80
2023/02/22 10:23:20;;;;;;;55.38;13.80;;;5.50;99.90;;;4.01;100.00;101391.34;4973849;28;20129;-82
2023/02/22 10:26:03;;;;;;;44.28;11.23;;;5.50;99.90;;;3.98;100.00;101398.34;4953304;28;20046;-82
2023/02/22 10:28:58;;;;;;;48.08;10.63;;;5.60;99.90;;;4.10;100.00;101387.78;4961159;28;20048;-82
2023/02/22 10:31:34;;;;;;;49.47;13.85;;;5.70;99.90;;;4.52;100.00;101403.91;4927237;28;20038;-82
2023/02/22 10:34:09;;;;;;;54.53;14.10;;;5.80;99.90;;;4.50;100.00;101395.22;4935445;28;20056;-82
2023/02/22 10:36:40;;;;;;;46.90;12.52;;;6.00;99.90;;;4.66;100.00;101394.16;4923047;28;20046;-82
2023/02/22 10:39:35;;;;;;;55.45;15.90;;;6.00;99.90;;;4.68;100.00;101395.00;4945597;28;20088;-82